Time;durP1;ratioP1;P1;durP2;ratioP2;P2;SDS_P1;SDS_P2;PMS_P1;PMS_P2;Temp;Humidity;BMP_temperature;BMP_pressure;BME280_temperature;BME280_humidity;BME280_pressure;Samples;Min_cycle;Max_cycle;Signal;HPM_P1;HPM_P2
2022/05/21 00:00:36;;;;;;;5.30;1.90;;;;;;;-128.00;-1.00;-1.00;100024;1302;1003175;-25
2022/05/21 00:03:08;;;;;;;3.20;1.90;;;;;;;-128.00;-1.00;-1.00;100022;1302;1003257;-30
2022/05/21 00:05:37;;;;;;;1.10;0.70;;;;;;;-128.00;-1.00;-1.00;99994;1302;1004484;-30
2022/05/21 00:08:08;;;;;;;4.30;1.60;;;;;;;-128.00;-1.00;-1.00;100065;1302;1003543;-30
2022/05/21 00:10:37;;;;;;;6.20;1.60;;;;;;;-128.00;-1.00;-1.00;99999;1302;1003571;-25
2022/05/21 00:13:06;;;;;;;5.10;1.20;;;;;;;-128.00;-1.00;-1.00;99957;1302;1004956;-31
2022/05/21 00:15:36;;;;;;;2.30;1.10;;;;;;;-128.00;-1.00;-1.00;99991;1302;1004519;-32
2022/05/21 00:18:05;;;;;;;9.30;1.40;;;;;;;-128.00;-1.00;-1.00;99999;1302;1003246;-30
2022/05/21 00:23:09;;;;;;;2.10;1.10;;;;;;;-128.00;-1.00;-1.00;100050;1302;1003678;-32
2022/05/21 00:25:38;;;;;;;4.50;1.40;;;;;;;-128.00;-1.00;-1.00;99962;1302;1004008;-32
2022/05/21 00:28:07;;;;;;;1.10;0.70;;;;;;;-128.00;-1.00;-1.00;99980;1302;1004249;-31
2022/05/21 00:30:36;;;;;;;3.00;1.50;;;;;;;-128.00;-1.00;-1.00;100037;1302;1004078;-25
2022/05/21 00:33:06;;;;;;;6.10;1.80;;;;;;;-128.00;-1.00;-1.00;100004;1302;1003196;-31
2022/05/21 00:35:35;;;;;;;9.10;1.20;;;;;;;-128.00;-1.00;-1.00;100030;1302;1004084;-24
2022/05/21 00:38:04;;;;;;;2.00;1.30;;;;;;;-128.00;-1.00;-1.00;100089;1302;1003156;-25
2022/05/21 00:40:33;;;;;;;1.90;1.20;;;;;;;-128.00;-1.00;-1.00;100022;1302;1004175;-24
2022/05/21 00:43:03;;;;;;;7.30;0.90;;;;;;;-128.00;-1.00;-1.00;99981;1302;1003986;-31
2022/05/21 00:45:32;;;;;;;3.90;1.20;;;;;;;-128.00;-1.00;-1.00;100036;1302;1003479;-31
2022/05/21 00:48:01;;;;;;;2.50;1.50;;;;;;;-128.00;-1.00;-1.00;100035;1302;1003683;-28
2022/05/21 00:50:30;;;;;;;1.30;1.00;;;;;;;-128.00;-1.00;-1.00;100016;1302;1003424;-29
2022/05/21 00:52:59;;;;;;;5.50;1.80;;;;;;;-128.00;-1.00;-1.00;100028;1302;1003706;-28
2022/05/21 00:55:29;;;;;;;1.30;0.80;;;;;;;-128.00;-1.00;-1.00;99935;1302;1003666;-27
2022/05/21 01:00:34;;;;;;;9.50;1.90;;;;;;;-128.00;-1.00;-1.00;100003;1302;1003111;-25
2022/05/21 01:03:03;;;;;;;1.80;1.30;;;;;;;-128.00;-1.00;-1.00;99985;1302;1003712;-24
2022/05/21 01:05:32;;;;;;;2.60;1.50;;;;;;;-128.00;-1.00;-1.00;100013;1302;1003528;-25
2022/05/21 01:08:01;;;;;;;6.00;1.00;;;;;;;-128.00;-1.00;-1.00;100023;1302;1003556;-28
2022/05/21 01:10:33;;;;;;;3.10;1.50;;;;;;;-128.00;-1.00;-1.00;99951;1302;1003376;-29
2022/05/21 01:13:06;;;;;;;1.50;1.20;;;;;;;-128.00;-1.00;-1.00;99997;1302;1003498;-25
2022/05/21 01:15:38;;;;;;;1.50;1.10;;;;;;;-128.00;-1.00;-1.00;100003;1302;1004431;-25
2022/05/21 01:18:07;;;;;;;0.70;0.70;;;;;;;-128.00;-1.00;-1.00;99989;1302;1003536;-30
2022/05/21 01:20:39;;;;;;;2.70;2.30;;;;;;;-128.00;-1.00;-1.00;99982;1302;1003735;-26
2022/05/21 01:23:08;;;;;;;2.00;1.70;;;;;;;-128.00;-1.00;-1.00;99999;1302;1004325;-25
2022/05/21 01:25:38;;;;;;;3.60;2.10;;;;;;;-128.00;-1.00;-1.00;99971;1302;1003517;-25
2022/05/21 01:28:09;;;;;;;2.00;1.70;;;;;;;-128.00;-1.00;-1.00;99984;1302;1003377;-24
2022/05/21 01:30:44;;;;;;;3.30;1.90;;;;;;;-128.00;-1.00;-1.00;99962;1302;1003279;-24
2022/05/21 01:33:16;;;;;;;2.20;1.70;;;;;;;-128.00;-1.00;-1.00;100018;1302;1004470;-31
2022/05/21 01:35:45;;;;;;;9.00;2.40;;;;;;;-128.00;-1.00;-1.00;99964;1302;1004617;-29
2022/05/21 01:38:17;;;;;;;4.60;2.80;;;;;;;-128.00;-1.00;-1.00;99993;1302;1004375;-25
2022/05/21 01:40:46;;;;;;;2.70;1.50;;;;;;;-128.00;-1.00;-1.00;100018;1302;1003700;-29
2022/05/21 01:45:51;;;;;;;3.60;1.30;;;;;;;-128.00;-1.00;-1.00;100003;1302;1003093;-25
2022/05/21 01:48:21;;;;;;;1.70;1.10;;;;;;;-128.00;-1.00;-1.00;99923;1302;1003290;-29
2022/05/21 01:50:51;;;;;;;11.20;2.50;;;;;;;-128.00;-1.00;-1.00;99985;1299;1003046;-25
2022/05/21 01:53:21;;;;;;;3.30;2.00;;;;;;;-128.00;-1.00;-1.00;100035;1302;1004286;-25
2022/05/21 01:55:50;;;;;;;3.10;2.40;;;;;;;-128.00;-1.00;-1.00;100009;1302;1004433;-29
2022/05/21 01:58:19;;;;;;;3.90;2.00;;;;;;;-128.00;-1.00;-1.00;100039;1301;1003840;-28
2022/05/21 02:00:48;;;;;;;1.50;1.10;;;;;;;-128.00;-1.00;-1.00;99966;1302;1002892;-28
2022/05/21 02:03:17;;;;;;;5.30;1.90;;;;;;;-128.00;-1.00;-1.00;100056;1302;1003637;-29
2022/05/21 02:05:46;;;;;;;1.60;1.10;;;;;;;-128.00;-1.00;-1.00;100042;1302;1004090;-23
2022/05/21 02:08:15;;;;;;;2.80;2.10;;;;;;;-128.00;-1.00;-1.00;100059;1302;1003410;-25
2022/05/21 02:10:44;;;;;;;2.60;1.20;;;;;;;-128.00;-1.00;-1.00;100004;1302;1003898;-29
2022/05/21 02:13:16;;;;;;;5.30;1.50;;;;;;;-128.00;-1.00;-1.00;99991;1302;1002794;-28
2022/05/21 02:15:46;;;;;;;5.00;2.00;;;;;;;-128.00;-1.00;-1.00;99940;1302;1004405;-25
2022/05/21 02:18:15;;;;;;;1.10;0.80;;;;;;;-128.00;-1.00;-1.00;100005;1302;1004439;-24
2022/05/21 02:20:47;;;;;;;1.80;1.20;;;;;;;-128.00;-1.00;-1.00;100062;1302;1004159;-24
2022/05/21 02:23:17;;;;;;;3.70;2.10;;;;;;;-128.00;-1.00;-1.00;99988;1302;1003194;-24
2022/05/21 02:25:46;;;;;;;2.00;1.70;;;;;;;-128.00;-1.00;-1.00;100020;1302;1004181;-28
2022/05/21 02:28:15;;;;;;;1.30;0.90;;;;;;;-128.00;-1.00;-1.00;100006;1302;1003549;-30
2022/05/21 02:30:44;;;;;;;0.80;0.50;;;;;;;-128.00;-1.00;-1.00;100012;1302;1003575;-30
2022/05/21 02:33:13;;;;;;;4.20;2.60;;;;;;;-128.00;-1.00;-1.00;99944;1302;1003729;-29
2022/05/21 02:35:42;;;;;;;1.10;0.80;;;;;;;-128.00;-1.00;-1.00;100073;1302;1003698;-25
2022/05/21 02:40:44;;;;;;;6.30;3.30;;;;;;;-128.00;-1.00;-1.00;100052;1302;1003086;-24
2022/05/21 02:43:13;;;;;;;2.20;1.20;;;;;;;-128.00;-1.00;-1.00;100018;1302;1004018;-23
2022/05/21 02:45:42;;;;;;;2.30;1.50;;;;;;;-128.00;-1.00;-1.00;100018;1301;1003728;-24
2022/05/21 02:48:11;;;;;;;1.00;0.70;;;;;;;-128.00;-1.00;-1.00;100064;1302;1004793;-24
2022/05/21 02:50:41;;;;;;;2.70;1.50;;;;;;;-128.00;-1.00;-1.00;100027;1302;1003525;-29
2022/05/21 02:53:15;;;;;;;1.50;1.30;;;;;;;-128.00;-1.00;-1.00;100027;1302;1003503;-28
2022/05/21 02:55:46;;;;;;;2.70;1.40;;;;;;;-128.00;-1.00;-1.00;100013;1302;1003270;-25
2022/05/21 02:58:15;;;;;;;2.70;1.70;;;;;;;-128.00;-1.00;-1.00;99984;1302;1004556;-24
2022/05/21 03:00:45;;;;;;;1.40;1.20;;;;;;;-128.00;-1.00;-1.00;100039;1302;1004259;-28
2022/05/21 03:03:14;;;;;;;6.30;1.10;;;;;;;-128.00;-1.00;-1.00;100033;1302;1003497;-28
2022/05/21 03:05:43;;;;;;;1.30;0.90;;;;;;;-128.00;-1.00;-1.00;99980;1302;1004559;-28
2022/05/21 03:10:44;;;;;;;2.10;1.50;;;;;;;-128.00;-1.00;-1.00;99893;1302;1003799;-24
2022/05/21 03:13:13;;;;;;;2.50;1.40;;;;;;;-128.00;-1.00;-1.00;99895;1302;1005626;-23
2022/05/21 03:15:42;;;;;;;6.10;2.10;;;;;;;-128.00;-1.00;-1.00;100018;1302;1003812;-25
2022/05/21 03:18:12;;;;;;;0.80;0.50;;;;;;;-128.00;-1.00;-1.00;100044;1302;1003089;-28
2022/05/21 03:20:41;;;;;;;1.80;1.10;;;;;;;-128.00;-1.00;-1.00;100022;1302;1003710;-24
2022/05/21 03:23:10;;;;;;;2.40;1.80;;;;;;;-128.00;-1.00;-1.00;100049;1301;1003708;-25
2022/05/21 03:25:39;;;;;;;11.80;1.90;;;;;;;-128.00;-1.00;-1.00;99983;1302;1004101;-24
2022/05/21 03:28:12;;;;;;;2.80;2.30;;;;;;;-128.00;-1.00;-1.00;100054;1302;1003523;-24
2022/05/21 03:30:41;;;;;;;1.30;1.00;;;;;;;-128.00;-1.00;-1.00;99970;1302;1003728;-24
2022/05/21 03:33:10;;;;;;;2.20;1.30;;;;;;;-128.00;-1.00;-1.00;100013;1302;1004157;-24
2022/05/21 03:35:41;;;;;;;2.30;1.60;;;;;;;-128.00;-1.00;-1.00;99335;1302;1003683;-26
2022/05/21 03:38:10;;;;;;;1.10;1.00;;;;;;;-128.00;-1.00;-1.00;100004;1302;1002672;-24
2022/05/21 03:40:39;;;;;;;2.10;1.30;;;;;;;-128.00;-1.00;-1.00;99914;1302;1003031;-28
2022/05/21 03:43:09;;;;;;;1.90;1.10;;;;;;;-128.00;-1.00;-1.00;100038;1302;1004741;-27
2022/05/21 03:45:38;;;;;;;5.20;1.40;;;;;;;-128.00;-1.00;-1.00;99992;1302;1003972;-30
2022/05/21 03:48:07;;;;;;;3.20;1.50;;;;;;;-128.00;-1.00;-1.00;100017;1302;1003815;-26
2022/05/21 03:50:36;;;;;;;6.00;0.70;;;;;;;-128.00;-1.00;-1.00;99953;1302;1003601;-24
2022/05/21 03:53:05;;;;;;;3.00;1.30;;;;;;;-128.00;-1.00;-1.00;100022;1301;1004006;-30
2022/05/21 03:55:34;;;;;;;1.40;1.20;;;;;;;-128.00;-1.00;-1.00;100044;1302;1003949;-30
2022/05/21 03:58:03;;;;;;;3.30;1.20;;;;;;;-128.00;-1.00;-1.00;99993;1302;1003289;-30
2022/05/21 04:00:32;;;;;;;1.80;0.90;;;;;;;-128.00;-1.00;-1.00;99941;1302;1003438;-24
2022/05/21 04:03:01;;;;;;;1.40;1.20;;;;;;;-128.00;-1.00;-1.00;100018;1302;1003261;-23
2022/05/21 04:05:30;;;;;;;1.70;1.10;;;;;;;-128.00;-1.00;-1.00;99958;1302;1003930;-25
2022/05/21 04:07:59;;;;;;;1.70;1.50;;;;;;;-128.00;-1.00;-1.00;99915;1302;1002958;-28
2022/05/21 04:10:28;;;;;;;1.30;1.20;;;;;;;-128.00;-1.00;-1.00;100071;1302;1003556;-28
2022/05/21 04:12:57;;;;;;;11.30;1.60;;;;;;;-128.00;-1.00;-1.00;100025;1302;1004524;-28
2022/05/21 04:15:26;;;;;;;1.60;1.30;;;;;;;-128.00;-1.00;-1.00;99801;1302;1003471;-25
2022/05/21 04:17:55;;;;;;;1.20;1.00;;;;;;;-128.00;-1.00;-1.00;99989;1302;1003523;-28
2022/05/21 04:20:25;;;;;;;3.10;0.70;;;;;;;-128.00;-1.00;-1.00;99995;1302;1004342;-28
2022/05/21 04:22:54;;;;;;;1.00;0.50;;;;;;;-128.00;-1.00;-1.00;100049;1302;1003100;-24
2022/05/21 04:25:22;;;;;;;1.00;0.60;;;;;;;-128.00;-1.00;-1.00;100071;1302;1004601;-28
2022/05/21 04:27:52;;;;;;;0.40;0.40;;;;;;;-128.00;-1.00;-1.00;100076;1302;1003669;-24
2022/05/21 04:30:25;;;;;;;1.10;0.50;;;;;;;-128.00;-1.00;-1.00;99314;1302;1003576;-24
2022/05/21 04:32:55;;;;;;;2.80;0.70;;;;;;;-128.00;-1.00;-1.00;99978;1302;1002837;-25
2022/05/21 04:35:25;;;;;;;1.70;0.30;;;;;;;-128.00;-1.00;-1.00;100000;1302;1004707;-25
2022/05/21 04:37:54;;;;;;;3.40;0.90;;;;;;;-128.00;-1.00;-1.00;100003;1302;1003949;-24
2022/05/21 04:40:23;;;;;;;1.80;0.50;;;;;;;-128.00;-1.00;-1.00;100030;1302;1004382;-24
2022/05/21 04:42:52;;;;;;;1.70;0.80;;;;;;;-128.00;-1.00;-1.00;99941;1302;1003502;-28
2022/05/21 04:45:21;;;;;;;0.40;0.30;;;;;;;-128.00;-1.00;-1.00;100046;1302;1003850;-28
2022/05/21 04:47:50;;;;;;;2.20;0.90;;;;;;;-128.00;-1.00;-1.00;100031;1302;1003936;-28
2022/05/21 04:50:19;;;;;;;0.40;0.40;;;;;;;-128.00;-1.00;-1.00;100025;1302;1004013;-24
2022/05/21 04:52:48;;;;;;;0.70;0.30;;;;;;;-128.00;-1.00;-1.00;100081;1302;1003884;-28
2022/05/21 04:55:16;;;;;;;8.30;0.50;;;;;;;-128.00;-1.00;-1.00;100069;1302;1004105;-24
2022/05/21 04:57:45;;;;;;;0.60;0.50;;;;;;;-128.00;-1.00;-1.00;100058;1302;1004298;-24
2022/05/21 05:00:16;;;;;;;0.80;0.20;;;;;;;-128.00;-1.00;-1.00;100045;1302;1004162;-23
2022/05/21 05:02:45;;;;;;;0.30;0.30;;;;;;;-128.00;-1.00;-1.00;100034;1302;1004058;-30
2022/05/21 05:05:14;;;;;;;0.60;0.20;;;;;;;-128.00;-1.00;-1.00;99995;1302;1003884;-25
2022/05/21 05:07:43;;;;;;;0.20;0.20;;;;;;;-128.00;-1.00;-1.00;100057;1302;1004573;-34
2022/05/21 05:10:12;;;;;;;0.60;0.10;;;;;;;-128.00;-1.00;-1.00;99965;1302;1003599;-25
2022/05/21 05:12:41;;;;;;;0.10;0.10;;;;;;;-128.00;-1.00;-1.00;99991;1302;1004472;-28
2022/05/21 05:15:10;;;;;;;1.10;0.10;;;;;;;-128.00;-1.00;-1.00;99313;1302;1003407;-24
2022/05/21 05:17:39;;;;;;;0.40;0.10;;;;;;;-128.00;-1.00;-1.00;100039;1302;1003471;-25
2022/05/21 05:20:08;;;;;;;0.40;0.20;;;;;;;-128.00;-1.00;-1.00;100023;1302;1003616;-27
2022/05/21 05:22:37;;;;;;;0.60;0.10;;;;;;;-128.00;-1.00;-1.00;100014;1302;1003946;-25
2022/05/21 05:25:07;;;;;;;0.60;0.20;;;;;;;-128.00;-1.00;-1.00;100058;1302;1004767;-28
2022/05/21 05:27:36;;;;;;;4.00;0.30;;;;;;;-128.00;-1.00;-1.00;100016;1302;1003828;-24
2022/05/21 05:30:05;;;;;;;0.10;0.10;;;;;;;-128.00;-1.00;-1.00;100125;1302;1004636;-24
2022/05/21 05:32:34;;;;;;;0.10;0.00;;;;;;;-128.00;-1.00;-1.00;100011;1302;1003103;-28
2022/05/21 05:35:04;;;;;;;0.80;0.20;;;;;;;-128.00;-1.00;-1.00;99894;1302;1003689;-28
2022/05/21 05:37:33;;;;;;;9.50;0.40;;;;;;;-128.00;-1.00;-1.00;100034;1302;1003681;-28
2022/05/21 05:40:03;;;;;;;0.20;0.20;;;;;;;-128.00;-1.00;-1.00;99914;1302;1004293;-24
2022/05/21 05:42:35;;;;;;;0.30;0.10;;;;;;;-128.00;-1.00;-1.00;99800;1302;1003733;-24
2022/05/21 05:45:05;;;;;;;1.60;0.20;;;;;;;-128.00;-1.00;-1.00;100013;1302;1002975;-26
2022/05/21 05:47:34;;;;;;;1.40;0.50;;;;;;;-128.00;-1.00;-1.00;100003;1302;1003469;-26
2022/05/21 05:50:04;;;;;;;3.40;0.20;;;;;;;-128.00;-1.00;-1.00;100039;1302;1003251;-23
2022/05/21 05:52:33;;;;;;;0.20;0.10;;;;;;;-128.00;-1.00;-1.00;99999;1302;1003313;-28
2022/05/21 05:55:02;;;;;;;1.40;0.20;;;;;;;-128.00;-1.00;-1.00;100064;1302;1004225;-23
2022/05/21 05:57:31;;;;;;;0.40;0.10;;;;;;;-128.00;-1.00;-1.00;100023;1302;1004408;-24
2022/05/21 06:00:00;;;;;;;2.70;0.00;;;;;;;-128.00;-1.00;-1.00;100010;1302;1003759;-25
2022/05/21 06:05:02;;;;;;;0.20;0.00;;;;;;;-128.00;-1.00;-1.00;100062;1302;1003848;-25
2022/05/21 06:07:32;;;;;;;0.90;0.20;;;;;;;-128.00;-1.00;-1.00;100003;1302;1003213;-25
2022/05/21 06:10:03;;;;;;;1.50;0.20;;;;;;;-128.00;-1.00;-1.00;100007;1302;1005259;-24
2022/05/21 06:12:32;;;;;;;0.70;0.20;;;;;;;-128.00;-1.00;-1.00;100055;1302;1003216;-28
2022/05/21 06:15:01;;;;;;;2.20;0.30;;;;;;;-128.00;-1.00;-1.00;100032;1302;1004440;-28
2022/05/21 06:17:30;;;;;;;1.60;0.40;;;;;;;-128.00;-1.00;-1.00;100029;1302;1003797;-28
2022/05/21 06:19:59;;;;;;;1.10;0.50;;;;;;;-128.00;-1.00;-1.00;100070;1302;1003181;-24
2022/05/21 06:22:28;;;;;;;1.80;0.30;;;;;;;-128.00;-1.00;-1.00;100014;1302;1003879;-23
2022/05/21 06:24:57;;;;;;;0.90;0.20;;;;;;;-128.00;-1.00;-1.00;100013;1302;1004844;-28
2022/05/21 06:27:26;;;;;;;0.80;0.20;;;;;;;-128.00;-1.00;-1.00;100025;1302;1003816;-24
2022/05/21 06:29:56;;;;;;;1.10;0.30;;;;;;;-128.00;-1.00;-1.00;100034;1302;1003595;-24
2022/05/21 06:32:25;;;;;;;0.00;0.00;;;;;;;-128.00;-1.00;-1.00;99964;1302;1004273;-28
2022/05/21 06:34:54;;;;;;;0.40;0.30;;;;;;;-128.00;-1.00;-1.00;100010;1302;1003896;-24
2022/05/21 06:37:23;;;;;;;1.30;0.30;;;;;;;-128.00;-1.00;-1.00;100065;1302;1004060;-24
2022/05/21 06:39:54;;;;;;;2.80;0.20;;;;;;;-128.00;-1.00;-1.00;99951;1302;1004118;-26
2022/05/21 06:42:23;;;;;;;0.10;0.10;;;;;;;-128.00;-1.00;-1.00;100043;1302;1002930;-24
2022/05/21 06:44:54;;;;;;;0.30;0.20;;;;;;;-128.00;-1.00;-1.00;100012;1302;1003642;-27
2022/05/21 06:47:23;;;;;;;2.10;0.40;;;;;;;-128.00;-1.00;-1.00;100052;1302;1003599;-26
2022/05/21 06:49:54;;;;;;;0.20;0.20;;;;;;;-128.00;-1.00;-1.00;100051;1302;1003865;-24
2022/05/21 06:52:24;;;;;;;0.00;0.00;;;;;;;-128.00;-1.00;-1.00;100062;1302;1003935;-27
2022/05/21 06:54:53;;;;;;;0.60;0.40;;;;;;;-128.00;-1.00;-1.00;100044;1302;1004278;-28
2022/05/21 06:57:26;;;;;;;2.10;0.20;;;;;;;-128.00;-1.00;-1.00;100004;1302;1003460;-24
2022/05/21 06:59:55;;;;;;;0.30;0.20;;;;;;;-128.00;-1.00;-1.00;99983;1302;1003567;-27
2022/05/21 07:02:24;;;;;;;0.20;0.20;;;;;;;-128.00;-1.00;-1.00;100060;1302;1003729;-25
2022/05/21 07:10:00;;;;;;;2.80;0.00;;;;;;;-128.00;-1.00;-1.00;99988;1302;1003602;-24
2022/05/21 07:12:29;;;;;;;0.20;0.10;;;;;;;-128.00;-1.00;-1.00;100013;1301;1004865;-28
2022/05/21 07:14:59;;;;;;;1.00;0.10;;;;;;;-128.00;-1.00;-1.00;100030;1302;1004101;-28
2022/05/21 07:17:28;;;;;;;0.70;0.20;;;;;;;-128.00;-1.00;-1.00;99998;1302;1004038;-24
2022/05/21 07:19:57;;;;;;;0.50;0.20;;;;;;;-128.00;-1.00;-1.00;100022;1302;1003719;-27
2022/05/21 07:22:26;;;;;;;0.10;0.10;;;;;;;-128.00;-1.00;-1.00;100031;1302;1004294;-27
2022/05/21 07:24:55;;;;;;;1.00;0.80;;;;;;;-128.00;-1.00;-1.00;100016;1302;1003665;-30
2022/05/21 07:27:24;;;;;;;0.20;0.10;;;;;;;-128.00;-1.00;-1.00;100054;1302;1003314;-25
2022/05/21 07:29:53;;;;;;;1.00;0.10;;;;;;;-128.00;-1.00;-1.00;100017;1302;1003960;-24
2022/05/21 07:32:23;;;;;;;0.20;0.10;;;;;;;-128.00;-1.00;-1.00;100070;1302;1003783;-27
2022/05/21 07:34:57;;;;;;;0.40;0.20;;;;;;;-128.00;-1.00;-1.00;100023;1302;1003711;-28
2022/05/21 07:37:26;;;;;;;0.40;0.20;;;;;;;-128.00;-1.00;-1.00;99987;1302;1004175;-30
2022/05/21 07:39:55;;;;;;;1.60;0.20;;;;;;;-128.00;-1.00;-1.00;100003;1302;1003317;-30
2022/05/21 07:42:24;;;;;;;0.60;0.00;;;;;;;-128.00;-1.00;-1.00;100027;1302;1003157;-24
2022/05/21 07:44:53;;;;;;;5.50;0.20;;;;;;;-128.00;-1.00;-1.00;100014;1302;1003133;-29
2022/05/21 07:47:22;;;;;;;1.80;0.50;;;;;;;-128.00;-1.00;-1.00;100028;1302;1003011;-26
2022/05/21 07:49:52;;;;;;;0.70;0.30;;;;;;;-128.00;-1.00;-1.00;100061;1302;1004468;-24
2022/05/21 07:52:22;;;;;;;1.00;0.20;;;;;;;-128.00;-1.00;-1.00;100033;1302;1003469;-24
2022/05/21 07:54:51;;;;;;;0.90;0.40;;;;;;;-128.00;-1.00;-1.00;100044;1302;1004329;-24
2022/05/21 07:57:20;;;;;;;0.20;0.20;;;;;;;-128.00;-1.00;-1.00;100005;1302;1004244;-25
2022/05/21 07:59:49;;;;;;;0.30;0.30;;;;;;;-128.00;-1.00;-1.00;100049;1302;1004422;-29
2022/05/21 08:02:19;;;;;;;0.20;0.10;;;;;;;-128.00;-1.00;-1.00;99942;1302;1004756;-23
2022/05/21 08:04:48;;;;;;;3.50;0.10;;;;;;;-128.00;-1.00;-1.00;100029;1302;1004451;-24
2022/05/21 08:07:17;;;;;;;0.00;0.00;;;;;;;-128.00;-1.00;-1.00;100014;1302;1004088;-28
2022/05/21 08:09:47;;;;;;;0.20;0.10;;;;;;;-128.00;-1.00;-1.00;100027;1302;1003009;-24
2022/05/21 08:12:17;;;;;;;1.30;0.50;;;;;;;-128.00;-1.00;-1.00;100025;1302;1004038;-29
2022/05/21 08:14:46;;;;;;;0.80;0.30;;;;;;;-128.00;-1.00;-1.00;99997;1302;1005251;-28
2022/05/21 08:17:15;;;;;;;0.20;0.20;;;;;;;-128.00;-1.00;-1.00;100044;1302;1003764;-24
2022/05/21 08:19:44;;;;;;;0.50;0.40;;;;;;;-128.00;-1.00;-1.00;99955;1302;1004304;-25
2022/05/21 08:27:34;;;;;;;0.30;0.10;;;;;;;-128.00;-1.00;-1.00;99994;1302;1003640;-25
2022/05/21 08:30:04;;;;;;;0.70;0.20;;;;;;;-128.00;-1.00;-1.00;100087;1302;1003444;-24
2022/05/21 08:32:33;;;;;;;0.10;0.10;;;;;;;-128.00;-1.00;-1.00;100030;1302;1004036;-28
2022/05/21 08:35:02;;;;;;;0.40;0.10;;;;;;;-128.00;-1.00;-1.00;100066;1302;1003269;-27
2022/05/21 08:37:33;;;;;;;0.10;0.10;;;;;;;-128.00;-1.00;-1.00;100009;1302;1004204;-24
2022/05/21 08:40:02;;;;;;;0.30;0.20;;;;;;;-128.00;-1.00;-1.00;100054;1302;1004184;-24
2022/05/21 08:42:36;;;;;;;0.40;0.30;;;;;;;-128.00;-1.00;-1.00;99934;1303;1003241;-24
2022/05/21 08:45:11;;;;;;;0.30;0.10;;;;;;;-128.00;-1.00;-1.00;100008;1302;1004314;-24
2022/05/21 08:47:40;;;;;;;0.40;0.20;;;;;;;-128.00;-1.00;-1.00;100015;1302;1003208;-28
2022/05/21 08:50:13;;;;;;;6.50;0.10;;;;;;;-128.00;-1.00;-1.00;100054;1302;1004287;-25
2022/05/21 08:52:48;;;;;;;0.50;0.50;;;;;;;-128.00;-1.00;-1.00;100025;1302;1003238;-24
2022/05/21 08:55:23;;;;;;;1.30;0.10;;;;;;;-128.00;-1.00;-1.00;100065;1302;1003063;-23
2022/05/21 08:57:56;;;;;;;0.20;0.20;;;;;;;-128.00;-1.00;-1.00;100033;1302;1003438;-28
2022/05/21 09:00:27;;;;;;;0.20;0.10;;;;;;;-128.00;-1.00;-1.00;100056;1302;1003849;-28
2022/05/21 09:02:57;;;;;;;0.10;0.10;;;;;;;-128.00;-1.00;-1.00;100043;1302;1003263;-28
2022/05/21 09:05:26;;;;;;;3.10;0.30;;;;;;;-128.00;-1.00;-1.00;99950;1302;1004222;-23
2022/05/21 09:08:02;;;;;;;0.30;0.20;;;;;;;-128.00;-1.00;-1.00;100046;1301;1003654;-27
2022/05/21 09:10:35;;;;;;;0.40;0.30;;;;;;;-128.00;-1.00;-1.00;100022;1302;1003030;-30
2022/05/21 09:13:27;;;;;;;1.30;0.20;;;;;;;-128.00;-1.00;-1.00;100006;1302;1003395;-23
2022/05/21 09:18:29;;;;;;;3.10;0.30;;;;;;;-128.00;-1.00;-1.00;100036;1302;1003808;-30
2022/05/21 09:21:00;;;;;;;0.60;0.30;;;;;;;-128.00;-1.00;-1.00;100043;1302;1003659;-30
2022/05/21 09:23:36;;;;;;;0.20;0.20;;;;;;;-128.00;-1.00;-1.00;99996;1302;1004130;-30
2022/05/21 09:26:07;;;;;;;0.10;0.10;;;;;;;-128.00;-1.00;-1.00;100034;1302;1003722;-25
2022/05/21 09:28:38;;;;;;;3.10;0.20;;;;;;;-128.00;-1.00;-1.00;100036;1302;1003675;-30
2022/05/21 09:31:08;;;;;;;0.10;0.10;;;;;;;-128.00;-1.00;-1.00;100052;1302;1003879;-27
2022/05/21 09:33:40;;;;;;;0.20;0.10;;;;;;;-128.00;-1.00;-1.00;99952;1302;1003512;-30
2022/05/21 09:36:21;;;;;;;1.50;0.30;;;;;;;-128.00;-1.00;-1.00;99956;1302;1004609;-28
2022/05/21 09:38:52;;;;;;;0.30;0.20;;;;;;;-128.00;-1.00;-1.00;100016;1302;1003494;-25
2022/05/21 09:41:22;;;;;;;0.20;0.20;;;;;;;-128.00;-1.00;-1.00;100039;1302;1003665;-30
2022/05/21 09:46:31;;;;;;;0.30;0.20;;;;;;;-128.00;-1.00;-1.00;100026;1302;1005510;-24
2022/05/21 09:49:07;;;;;;;0.60;0.20;;;;;;;-128.00;-1.00;-1.00;100040;1302;1004800;-28
2022/05/21 09:51:35;;;;;;;0.10;0.10;;;;;;;-128.00;-1.00;-1.00;99982;1302;1004174;-24
2022/05/21 09:54:19;;;;;;;2.20;0.20;;;;;;;-128.00;-1.00;-1.00;100074;1302;1004107;-28
2022/05/21 09:56:49;;;;;;;;;;;;;;;-128.00;-1.00;-1.00;100063;1302;1003091;-29
2022/05/21 09:59:21;;;;;;;0.50;0.40;;;;;;;-128.00;-1.00;-1.00;100048;1301;1003782;-28
2022/05/21 10:01:53;;;;;;;1.20;0.20;;;;;;;-128.00;-1.00;-1.00;100020;1302;1003778;-28
2022/05/21 10:04:27;;;;;;;0.70;0.30;;;;;;;-128.00;-1.00;-1.00;100023;1302;1003462;-28
2022/05/21 10:06:59;;;;;;;0.80;0.30;;;;;;;-128.00;-1.00;-1.00;99967;1302;1003477;-25
2022/05/21 10:12:07;;;;;;;4.80;0.30;;;;;;;-128.00;-1.00;-1.00;99993;1302;1004565;-26
2022/05/21 10:14:41;;;;;;;0.60;0.30;;;;;;;-128.00;-1.00;-1.00;100033;1302;1003679;-28
2022/05/21 10:17:18;;;;;;;0.30;0.20;;;;;;;-128.00;-1.00;-1.00;99859;1302;1003876;-28
2022/05/21 10:19:54;;;;;;;0.10;0.10;;;;;;;-128.00;-1.00;-1.00;100016;1302;1004281;-28
2022/05/21 10:22:31;;;;;;;0.20;0.20;;;;;;;-128.00;-1.00;-1.00;100014;1302;1003693;-30
2022/05/21 10:25:04;;;;;;;1.10;0.20;;;;;;;-128.00;-1.00;-1.00;100028;1302;1003791;-28
2022/05/21 10:27:57;;;;;;;5.70;0.50;;;;;;;-128.00;-1.00;-1.00;100006;1299;1004233;-24
2022/05/21 10:30:33;;;;;;;0.20;0.10;;;;;;;-128.00;-1.00;-1.00;100025;1302;1003813;-24
2022/05/21 10:33:06;;;;;;;0.20;0.10;;;;;;;-128.00;-1.00;-1.00;99993;1302;1004568;-25
2022/05/21 10:35:42;;;;;;;0.90;0.20;;;;;;;-128.00;-1.00;-1.00;100060;1302;1003684;-27
2022/05/21 10:38:24;;;;;;;0.70;0.30;;;;;;;-128.00;-1.00;-1.00;100017;1302;1003447;-24
2022/05/21 10:40:57;;;;;;;8.90;0.20;;;;;;;-128.00;-1.00;-1.00;99976;1302;1004328;-25
2022/05/21 10:43:33;;;;;;;1.40;0.20;;;;;;;-128.00;-1.00;-1.00;100030;1302;1003470;-25
2022/05/21 10:46:05;;;;;;;0.10;0.10;;;;;;;-128.00;-1.00;-1.00;100013;1302;1004592;-25
2022/05/21 10:48:39;;;;;;;1.30;0.50;;;;;;;-128.00;-1.00;-1.00;100007;1302;1003125;-24
2022/05/21 10:51:11;;;;;;;0.20;0.10;;;;;;;-128.00;-1.00;-1.00;100027;1302;1003812;-27
2022/05/21 10:53:48;;;;;;;0.20;0.00;;;;;;;-128.00;-1.00;-1.00;100041;1302;1004313;-24
2022/05/21 10:56:20;;;;;;;0.90;0.20;;;;;;;-128.00;-1.00;-1.00;100067;1302;1003910;-24
2022/05/21 10:58:56;;;;;;;0.20;0.10;;;;;;;-128.00;-1.00;-1.00;100088;1302;1003515;-24
2022/05/21 11:01:27;;;;;;;0.20;0.10;;;;;;;-128.00;-1.00;-1.00;100004;1302;1003848;-25
2022/05/21 11:04:01;;;;;;;1.50;0.40;;;;;;;-128.00;-1.00;-1.00;100004;1302;1003723;-28
2022/05/21 11:06:41;;;;;;;0.60;0.20;;;;;;;-128.00;-1.00;-1.00;99978;1301;1003103;-25
2022/05/21 11:09:17;;;;;;;6.60;0.20;;;;;;;-128.00;-1.00;-1.00;99911;1302;1003674;-29
2022/05/21 11:11:53;;;;;;;0.70;0.20;;;;;;;-128.00;-1.00;-1.00;99996;1302;1003207;-28
2022/05/21 11:14:27;;;;;;;1.30;0.20;;;;;;;-128.00;-1.00;-1.00;100011;1301;1003292;-28
2022/05/21 11:17:04;;;;;;;2.50;0.30;;;;;;;-128.00;-1.00;-1.00;100046;1302;1004581;-28
2022/05/21 11:19:37;;;;;;;0.90;0.20;;;;;;;-128.00;-1.00;-1.00;100010;1302;1004294;-23
2022/05/21 11:22:08;;;;;;;0.70;0.10;;;;;;;-128.00;-1.00;-1.00;100022;1302;1003584;-25
2022/05/21 11:24:45;;;;;;;0.80;0.30;;;;;;;-128.00;-1.00;-1.00;99979;1302;1003787;-25
2022/05/21 11:27:36;;;;;;;2.60;0.20;;;;;;;-128.00;-1.00;-1.00;99972;1302;1003317;-28
2022/05/21 11:30:07;;;;;;;0.50;0.40;;;;;;;-128.00;-1.00;-1.00;100067;1302;1004881;-30
2022/05/21 11:37:55;;;;;;;1.20;0.20;;;;;;;-128.00;-1.00;-1.00;100030;1302;1003594;-26
2022/05/21 11:40:31;;;;;;;2.90;0.20;;;;;;;-128.00;-1.00;-1.00;99977;1302;1003714;-26
2022/05/21 11:43:00;;;;;;;1.00;0.30;;;;;;;-128.00;-1.00;-1.00;100020;1302;1003659;-28
2022/05/21 11:45:29;;;;;;;0.40;0.10;;;;;;;-128.00;-1.00;-1.00;100019;1302;1003966;-30
2022/05/21 11:48:04;;;;;;;0.40;0.10;;;;;;;-128.00;-1.00;-1.00;100068;1302;1003285;-29
2022/05/21 11:50:33;;;;;;;0.90;0.40;;;;;;;-128.00;-1.00;-1.00;100049;1302;1003192;-24
2022/05/21 11:53:05;;;;;;;1.50;0.30;;;;;;;-128.00;-1.00;-1.00;100020;1302;1003666;-24
2022/05/21 11:55:55;;;;;;;2.10;0.70;;;;;;;-128.00;-1.00;-1.00;100005;1302;1004514;-25
2022/05/21 11:58:25;;;;;;;0.70;0.20;;;;;;;-128.00;-1.00;-1.00;100035;1302;1002737;-28
2022/05/21 12:00:54;;;;;;;0.10;0.10;;;;;;;-128.00;-1.00;-1.00;100011;1302;1003984;-28
2022/05/21 12:03:24;;;;;;;0.70;0.30;;;;;;;-128.00;-1.00;-1.00;100028;1302;1004145;-28
2022/05/21 12:05:56;;;;;;;1.00;0.10;;;;;;;-128.00;-1.00;-1.00;99998;1302;1004131;-28
2022/05/21 12:08:25;;;;;;;0.20;0.10;;;;;;;-128.00;-1.00;-1.00;99977;1302;1003478;-25
2022/05/21 12:10:57;;;;;;;0.80;0.40;;;;;;;-128.00;-1.00;-1.00;99982;1302;1003952;-25
2022/05/21 12:13:33;;;;;;;0.30;0.20;;;;;;;-128.00;-1.00;-1.00;100036;1302;1003827;-28